createdAt,value
2023-08-02T00:00:43.088Z,2.13
2023-08-02T00:03:29.354Z,1.63
2023-08-02T00:06:15.974Z,1.60
2023-08-02T00:09:02.414Z,1.60
2023-08-02T00:11:52.346Z,1.50
2023-08-02T00:14:38.951Z,1.57
2023-08-02T00:17:25.461Z,1.53
2023-08-02T00:20:12.449Z,2.10
2023-08-02T00:22:59.093Z,1.57
2023-08-02T00:25:45.639Z,1.97
2023-08-02T00:28:32.379Z,2.00
2023-08-02T00:31:18.711Z,1.60
2023-08-02T00:34:05.241Z,1.70
2023-08-02T00:36:51.721Z,1.83
2023-08-02T00:39:39.306Z,1.43
2023-08-02T00:42:26.591Z,1.60
2023-08-02T00:45:12.792Z,1.60
2023-08-02T00:47:59.974Z,1.60
2023-08-02T00:50:46.477Z,1.40
2023-08-02T00:53:32.942Z,1.47
2023-08-02T00:56:19.293Z,1.90
2023-08-02T00:59:05.822Z,1.40
2023-08-02T01:01:52.111Z,1.60
2023-08-02T01:04:39.174Z,1.50
2023-08-02T01:07:41.421Z,1.40
2023-08-02T01:10:40.477Z,1.80
2023-08-02T01:13:28.383Z,1.60
2023-08-02T01:16:16.467Z,1.63
2023-08-02T01:19:09.247Z,1.70
2023-08-02T01:21:55.374Z,2.03
2023-08-02T01:24:42.939Z,1.67
2023-08-02T01:27:37.717Z,1.80
2023-08-02T01:30:30.647Z,2.00
2023-08-02T01:33:18.290Z,2.00
2023-08-02T01:36:05.355Z,1.60
2023-08-02T01:38:54.994Z,1.77
2023-08-02T01:41:41.309Z,1.97
2023-08-02T01:44:27.686Z,1.70
2023-08-02T01:47:16.098Z,1.70
2023-08-02T01:50:02.346Z,1.50
2023-08-02T01:52:50.339Z,1.83
2023-08-02T01:55:36.686Z,1.50
2023-08-02T01:58:24.860Z,1.50
2023-08-02T02:01:11.079Z,1.50
2023-08-02T02:03:57.487Z,2.00
2023-08-02T02:06:44.390Z,2.13
2023-08-02T02:09:30.937Z,1.67
2023-08-02T02:12:17.530Z,1.87
2023-08-02T02:15:03.991Z,1.40
2023-08-02T02:17:50.246Z,2.70
2023-08-02T02:20:36.615Z,2.10
2023-08-02T02:23:23.072Z,2.10
2023-08-02T02:26:09.802Z,1.73
2023-08-02T02:28:56.370Z,1.90
2023-08-02T02:31:43.394Z,1.77
2023-08-02T02:34:29.659Z,1.90
2023-08-02T02:37:16.246Z,1.80
2023-08-02T02:40:02.882Z,1.80
2023-08-02T02:42:49.110Z,1.80
2023-08-02T02:45:35.715Z,1.57
2023-08-02T02:48:21.998Z,1.53
2023-08-02T02:51:08.463Z,1.60
2023-08-02T02:53:55.083Z,1.43
2023-08-02T02:56:41.864Z,1.70
2023-08-02T02:59:28.413Z,1.70
2023-08-02T03:02:15.081Z,1.57
2023-08-02T03:05:01.293Z,1.90
2023-08-02T03:07:47.801Z,1.50
2023-08-02T03:10:34.247Z,1.40
2023-08-02T03:13:20.624Z,1.63
2023-08-02T03:16:07.111Z,1.60
2023-08-02T03:18:55.895Z,1.60
2023-08-02T03:21:44.578Z,1.60
2023-08-02T03:24:31.039Z,1.63
2023-08-02T03:27:17.449Z,1.70
2023-08-02T03:30:04.507Z,1.80
2023-08-02T03:32:50.983Z,1.70
2023-08-02T03:35:37.588Z,1.70
2023-08-02T03:38:24.042Z,1.50
2023-08-02T03:41:10.638Z,1.70
2023-08-02T03:43:56.921Z,1.40
2023-08-02T03:46:43.626Z,1.40
2023-08-02T03:49:30.084Z,1.40
2023-08-02T03:52:16.657Z,1.20
2023-08-02T03:55:02.864Z,1.57
2023-08-02T03:57:48.942Z,1.30
2023-08-02T04:00:35.582Z,1.60
2023-08-02T04:03:22.132Z,1.40
2023-08-02T04:06:08.478Z,1.40
2023-08-02T04:08:54.802Z,1.63
2023-08-02T04:11:41.409Z,1.80
2023-08-02T04:14:27.875Z,1.90
2023-08-02T04:17:14.413Z,1.50
2023-08-02T04:20:02.386Z,1.43
2023-08-02T04:22:50.768Z,1.70
2023-08-02T04:25:37.001Z,1.40
2023-08-02T04:28:23.677Z,1.80
2023-08-02T04:31:09.943Z,1.60
2023-08-02T04:33:57.249Z,1.50
2023-08-02T04:36:43.627Z,1.63
2023-08-02T04:39:30.250Z,1.90
2023-08-02T04:42:17.692Z,1.60
2023-08-02T04:45:04.656Z,1.73
2023-08-02T04:47:51.248Z,1.60
2023-08-02T04:50:38.627Z,1.53
2023-08-02T04:53:24.925Z,1.70
2023-08-02T04:56:11.362Z,1.80
2023-08-02T04:58:58.151Z,1.70
2023-08-02T05:01:44.695Z,1.83
2023-08-02T05:04:31.654Z,1.60
2023-08-02T05:07:17.922Z,1.90
2023-08-02T05:10:07.841Z,1.97
2023-08-02T05:12:54.656Z,2.10
2023-08-02T05:15:40.934Z,2.23
2023-08-02T05:18:27.545Z,2.03
2023-08-02T05:21:15.596Z,1.70
2023-08-02T05:24:02.202Z,1.80
2023-08-02T05:26:49.350Z,1.80
2023-08-02T05:29:35.852Z,2.00
2023-08-02T05:32:22.255Z,2.17
2023-08-02T05:35:09.011Z,1.60
2023-08-02T05:37:55.414Z,2.03
2023-08-02T05:40:41.622Z,2.13
2023-08-02T05:43:28.310Z,1.90
2023-08-02T05:46:14.532Z,2.00
2023-08-02T05:49:01.334Z,2.10
2023-08-02T05:51:47.728Z,2.07
2023-08-02T05:54:34.206Z,2.13
2023-08-02T05:57:20.655Z,2.20
2023-08-02T06:00:08.341Z,1.70
2023-08-02T06:02:54.687Z,2.00
2023-08-02T06:05:40.988Z,2.60
2023-08-02T06:08:27.599Z,2.43
2023-08-02T06:11:14.104Z,2.80
2023-08-02T06:14:00.428Z,2.10
2023-08-02T06:16:46.629Z,2.50
2023-08-02T06:19:32.966Z,2.10
2023-08-02T06:22:19.534Z,2.20
2023-08-02T06:25:06.755Z,2.00
2023-08-02T06:27:53.085Z,2.20
2023-08-02T06:30:39.452Z,2.10
2023-08-02T06:33:26.039Z,2.37
2023-08-02T06:36:12.663Z,2.00
2023-08-02T06:38:58.817Z,2.00
2023-08-02T06:41:45.473Z,2.30
2023-08-02T06:44:33.250Z,2.50
2023-08-02T06:47:19.490Z,2.80
2023-08-02T06:50:06.509Z,2.40
2023-08-02T06:52:53.022Z,2.30
2023-08-02T06:55:39.274Z,2.63
2023-08-02T06:58:25.849Z,2.23
2023-08-02T07:01:22.825Z,2.47
2023-08-02T07:04:09.424Z,2.47
2023-08-02T07:06:55.533Z,2.40
2023-08-02T07:09:42.092Z,2.30
2023-08-02T07:12:29.333Z,2.63
2023-08-02T07:15:15.779Z,2.47
2023-08-02T07:18:02.254Z,2.40
2023-08-02T07:20:48.717Z,2.50
2023-08-02T07:23:36.075Z,2.90
2023-08-02T07:26:23.795Z,2.40
2023-08-02T07:29:10.302Z,2.27
2023-08-02T07:31:56.740Z,2.80
2023-08-02T07:34:43.301Z,2.20
2023-08-02T07:37:29.890Z,2.30
2023-08-02T07:40:16.569Z,2.60
2023-08-02T07:43:02.789Z,2.60
2023-08-02T07:45:49.192Z,2.50
2023-08-02T07:48:35.392Z,2.67
2023-08-02T07:51:22.056Z,2.40
2023-08-02T07:54:08.744Z,2.90
2023-08-02T07:56:55.114Z,2.37
2023-08-02T07:59:41.559Z,2.40
2023-08-02T08:02:28.619Z,2.23
2023-08-02T08:05:15.163Z,2.77
2023-08-02T08:08:01.473Z,2.83
2023-08-02T08:10:52.480Z,2.60
2023-08-02T08:13:39.130Z,2.97
2023-08-02T08:16:25.412Z,3.03
2023-08-02T08:19:11.948Z,2.63
2023-08-02T08:21:58.742Z,3.37
2023-08-02T08:24:45.224Z,3.00
2023-08-02T08:27:31.642Z,2.53
2023-08-02T08:30:18.164Z,2.63
2023-08-02T08:33:04.452Z,3.33
2023-08-02T08:35:50.733Z,2.57
2023-08-02T08:38:37.171Z,2.87
2023-08-02T08:41:23.790Z,2.67
2023-08-02T08:44:10.253Z,2.77
2023-08-02T08:47:00.369Z,3.10
2023-08-02T08:49:48.114Z,2.60
2023-08-02T08:52:36.902Z,2.87
2023-08-02T08:55:28.058Z,2.80
2023-08-02T08:58:15.003Z,3.17
2023-08-02T09:01:04.749Z,3.00
2023-08-02T09:03:51.116Z,3.37
2023-08-02T09:06:37.789Z,2.93
2023-08-02T09:09:24.402Z,2.80
2023-08-02T09:12:10.749Z,3.60
2023-08-02T09:15:08.465Z,3.23
2023-08-02T09:17:55.958Z,2.53
2023-08-02T09:20:53.201Z,2.80
2023-08-02T09:23:39.886Z,2.47
2023-08-02T09:26:26.459Z,2.30
2023-08-02T09:29:13.766Z,2.40
2023-08-02T09:32:00.758Z,2.80
2023-08-02T09:34:59.696Z,2.60
2023-08-02T09:37:46.128Z,3.07
2023-08-02T09:40:49.401Z,2.10
2023-08-02T09:43:45.451Z,2.23
2023-08-02T09:46:37.212Z,2.33
2023-08-02T09:49:24.574Z,2.33
2023-08-02T09:52:11.507Z,2.07
2023-08-02T09:54:58.101Z,2.57
2023-08-02T09:57:47.711Z,2.83
2023-08-02T10:00:34.155Z,2.23
2023-08-02T10:03:25.922Z,2.50
2023-08-02T10:06:13.608Z,2.70
2023-08-02T10:09:06.605Z,2.30
2023-08-02T10:12:07.673Z,2.73
2023-08-02T10:14:57.726Z,1.90
2023-08-02T10:17:44.816Z,2.50
2023-08-02T10:20:31.195Z,2.50
2023-08-02T10:23:17.395Z,2.17
2023-08-02T10:26:04.006Z,2.63
2023-08-02T10:28:50.610Z,2.10
2023-08-02T10:31:37.202Z,2.10
2023-08-02T10:34:35.586Z,2.50
2023-08-02T10:37:22.036Z,2.27
2023-08-02T10:40:08.381Z,2.30
2023-08-02T10:43:06.285Z,2.23
2023-08-02T10:46:18.413Z,2.33
2023-08-02T10:49:10.745Z,2.43
2023-08-02T10:51:58.110Z,2.20
2023-08-02T10:55:03.910Z,2.33
2023-08-02T10:57:56.301Z,2.10
2023-08-02T11:00:43.078Z,1.83
2023-08-02T11:03:30.349Z,2.27
2023-08-02T11:06:27.816Z,1.93
2023-08-02T11:09:14.320Z,1.90
2023-08-02T11:12:14.968Z,2.27
2023-08-02T11:15:01.689Z,2.10
2023-08-02T11:17:54.887Z,1.90
2023-08-02T11:20:41.663Z,2.40
2023-08-02T11:23:28.005Z,2.20
2023-08-02T11:26:16.422Z,2.40
2023-08-02T11:29:08.956Z,2.40
2023-08-02T11:31:55.791Z,2.83
2023-08-02T11:34:43.923Z,2.57
2023-08-02T11:37:30.132Z,2.47
2023-08-02T11:43:08.209Z,2.63
2023-08-02T11:45:54.947Z,2.50
2023-08-02T11:48:42.036Z,2.93
2023-08-02T11:51:28.361Z,2.90
2023-08-02T11:54:15.432Z,2.70
2023-08-02T11:57:05.010Z,3.57
2023-08-02T11:59:53.553Z,2.80
2023-08-02T12:02:39.960Z,3.07
2023-08-02T12:05:26.935Z,2.77
2023-08-02T12:08:14.186Z,2.70
2023-08-02T12:11:00.452Z,2.97
2023-08-02T12:13:46.892Z,3.37
2023-08-02T12:16:44.363Z,2.83
2023-08-02T12:19:39.194Z,3.10
2023-08-02T12:22:25.761Z,2.63
2023-08-02T12:25:12.101Z,2.77
2023-08-02T12:28:04.901Z,3.10
2023-08-02T12:31:02.076Z,2.80
2023-08-02T12:33:49.598Z,2.90
2023-08-02T12:36:36.239Z,2.67
2023-08-02T12:39:23.633Z,2.90
2023-08-02T12:42:10.322Z,2.87
2023-08-02T12:45:02.014Z,2.50
2023-08-02T12:47:58.719Z,2.80
2023-08-02T12:50:45.571Z,2.50
2023-08-02T12:53:32.435Z,3.03
2023-08-02T12:56:19.136Z,3.20
2023-08-02T12:59:05.510Z,2.87
2023-08-02T13:01:51.992Z,2.73
2023-08-02T13:04:39.319Z,2.70
2023-08-02T13:07:35.819Z,2.40
2023-08-02T13:10:29.594Z,2.00
2023-08-02T13:13:15.745Z,2.60
2023-08-02T13:16:02.161Z,2.20
2023-08-02T13:18:48.769Z,2.57
2023-08-02T13:21:35.426Z,2.40
2023-08-02T13:24:21.850Z,2.30
2023-08-02T13:27:08.184Z,2.10
2023-08-02T13:29:54.491Z,2.20
2023-08-02T13:32:41.103Z,2.10
2023-08-02T13:35:27.521Z,2.20
2023-08-02T13:38:14.254Z,2.00
2023-08-02T13:41:01.668Z,2.17
2023-08-02T13:43:47.927Z,2.17
2023-08-02T13:46:34.415Z,2.27
2023-08-02T13:49:21.029Z,2.27
2023-08-02T13:52:07.634Z,2.40
2023-08-02T13:54:53.918Z,2.20
2023-08-02T13:57:40.443Z,2.23
2023-08-02T14:00:26.753Z,2.30
2023-08-02T14:03:13.089Z,1.97
2023-08-02T14:05:59.869Z,2.20
2023-08-02T14:08:46.295Z,1.80
2023-08-02T14:11:32.470Z,1.60
2023-08-02T14:14:19.007Z,1.80
2023-08-02T14:17:05.969Z,1.80
2023-08-02T14:19:52.537Z,1.73
2023-08-02T14:22:38.800Z,1.70
2023-08-02T14:25:25.257Z,1.83
2023-08-02T14:28:11.476Z,2.00
2023-08-02T14:31:00.857Z,2.00
2023-08-02T14:33:47.630Z,1.77
2023-08-02T14:36:34.271Z,2.30
2023-08-02T14:39:20.973Z,1.80
2023-08-02T14:42:07.454Z,1.70
2023-08-02T14:44:53.516Z,1.90
2023-08-02T14:47:40.119Z,2.10
2023-08-02T14:50:27.790Z,1.87
2023-08-02T14:53:14.053Z,2.00
2023-08-02T14:56:00.601Z,1.80
2023-08-02T14:58:47.018Z,1.90
2023-08-02T15:01:33.499Z,2.00
2023-08-02T15:04:21.086Z,1.70
2023-08-02T15:07:07.384Z,1.80
2023-08-02T15:09:53.647Z,1.80
2023-08-02T15:12:40.213Z,1.87
2023-08-02T15:15:26.603Z,1.93
2023-08-02T15:18:13.253Z,1.77
2023-08-02T15:21:02.114Z,1.50
2023-08-02T15:23:51.801Z,1.93
2023-08-02T15:26:38.798Z,1.80
2023-08-02T15:29:26.311Z,2.00
2023-08-02T15:32:12.858Z,2.00
2023-08-02T15:34:59.345Z,1.80
2023-08-02T15:37:48.688Z,1.67
2023-08-02T15:40:35.199Z,2.10
2023-08-02T15:43:21.995Z,1.73
2023-08-02T15:46:08.274Z,1.90
2023-08-02T15:48:54.941Z,2.00
2023-08-02T15:51:42.408Z,1.83
2023-08-02T15:54:29.925Z,1.80
2023-08-02T15:57:16.232Z,1.60
2023-08-02T16:00:02.990Z,2.03
2023-08-02T16:02:58.042Z,2.07
2023-08-02T16:05:44.259Z,1.97
2023-08-02T16:08:31.051Z,1.70
2023-08-02T16:11:17.445Z,2.00
2023-08-02T16:14:03.878Z,1.90
2023-08-02T16:16:50.123Z,2.10
2023-08-02T16:19:38.593Z,2.00
2023-08-02T16:22:25.042Z,2.00
2023-08-02T16:25:11.245Z,2.13
2023-08-02T16:27:57.655Z,1.90
2023-08-02T16:30:44.256Z,1.80
2023-08-02T16:33:30.684Z,1.80
2023-08-02T16:36:17.045Z,1.83
2023-08-02T16:39:03.658Z,2.00
2023-08-02T16:41:50.040Z,2.13
2023-08-02T16:44:36.243Z,1.80
2023-08-02T16:47:22.798Z,1.90
2023-08-02T16:50:13.914Z,1.90
2023-08-02T16:53:00.488Z,1.97
2023-08-02T16:55:47.183Z,1.70
2023-08-02T16:58:33.825Z,1.67
2023-08-02T17:01:20.144Z,1.70
2023-08-02T17:04:07.162Z,1.57
2023-08-02T17:06:53.606Z,1.50
2023-08-02T17:09:40.877Z,1.70
2023-08-02T17:12:27.444Z,1.47
2023-08-02T17:15:14.048Z,1.30
2023-08-02T17:18:00.445Z,1.50
2023-08-02T17:20:46.885Z,1.40
2023-08-02T17:23:33.246Z,1.77
2023-08-02T17:26:19.950Z,1.23
2023-08-02T17:29:06.513Z,1.13
2023-08-02T17:31:52.979Z,1.20
2023-08-02T17:34:39.390Z,1.90
2023-08-02T17:37:26.060Z,1.47
2023-08-02T17:40:12.561Z,1.47
2023-08-02T17:42:59.459Z,1.93
2023-08-02T17:45:46.104Z,1.57
2023-08-02T17:48:32.519Z,1.70
2023-08-02T17:51:19.229Z,1.47
2023-08-02T17:54:05.716Z,1.90
2023-08-02T17:56:51.991Z,1.77
2023-08-02T17:59:38.545Z,1.60
2023-08-02T18:02:24.996Z,1.63
2023-08-02T18:05:11.259Z,1.77
2023-08-02T18:07:57.672Z,1.97
2023-08-02T18:10:44.186Z,1.40
2023-08-02T18:13:31.438Z,1.47
2023-08-02T18:16:18.117Z,1.33
2023-08-02T18:19:04.702Z,1.40
2023-08-02T18:21:53.237Z,1.30
2023-08-02T18:24:42.826Z,1.40
2023-08-02T18:27:30.018Z,1.20
2023-08-02T18:30:16.701Z,1.20
2023-08-02T18:33:02.867Z,1.23
2023-08-02T18:35:49.590Z,1.30
2023-08-02T18:38:37.084Z,1.23
2023-08-02T18:41:24.635Z,1.43
2023-08-02T18:44:10.927Z,1.53
2023-08-02T18:46:57.403Z,1.00
2023-08-02T18:49:43.901Z,1.20
2023-08-02T18:52:35.947Z,1.00
2023-08-02T18:55:22.653Z,1.20
2023-08-02T18:58:09.566Z,1.37
2023-08-02T19:00:55.777Z,0.93
2023-08-02T19:03:42.971Z,1.00
2023-08-02T19:06:29.320Z,1.00
2023-08-02T19:09:15.682Z,1.43
2023-08-02T19:12:03.674Z,1.20
2023-08-02T19:14:50.443Z,1.20
2023-08-02T19:17:40.334Z,1.20
2023-08-02T19:20:27.695Z,1.10
2023-08-02T19:23:18.098Z,1.20
2023-08-02T19:26:04.453Z,1.27
2023-08-02T19:28:52.257Z,1.10
2023-08-02T19:31:38.792Z,1.10
2023-08-02T19:34:33.775Z,1.10
2023-08-02T19:37:27.387Z,1.20
2023-08-02T19:40:13.851Z,1.93
2023-08-02T19:43:00.137Z,1.10
2023-08-02T19:45:46.797Z,1.10
2023-08-02T19:48:37.418Z,1.10
2023-08-02T19:51:23.701Z,1.40
2023-08-02T19:54:11.870Z,1.20
2023-08-02T19:57:00.888Z,1.57
2023-08-02T19:59:47.111Z,1.23
2023-08-02T20:02:33.750Z,1.17
2023-08-02T20:06:00.579Z,1.37
2023-08-02T20:08:47.493Z,1.50
2023-08-02T20:11:34.028Z,1.27
2023-08-02T20:14:21.798Z,1.30
2023-08-02T20:17:14.778Z,1.20
2023-08-02T20:20:01.280Z,1.30
2023-08-02T20:22:47.657Z,1.43
2023-08-02T20:25:34.157Z,2.03
2023-08-02T20:28:20.930Z,1.40
2023-08-02T20:31:23.526Z,1.67
2023-08-02T20:34:11.787Z,1.40
2023-08-02T20:37:00.905Z,1.77
2023-08-02T20:39:47.381Z,1.40
2023-08-02T20:42:33.962Z,1.27
2023-08-02T20:45:20.940Z,1.60
2023-08-02T20:48:11.305Z,1.20
2023-08-02T20:50:57.829Z,1.10
2023-08-02T20:53:44.371Z,1.40
2023-08-02T20:56:30.672Z,1.67
2023-08-02T20:59:18.544Z,1.37
2023-08-02T21:02:21.538Z,1.40
2023-08-02T21:05:08.683Z,2.03
2023-08-02T21:07:57.249Z,1.57
2023-08-02T21:10:44.056Z,1.43
2023-08-02T21:13:30.306Z,1.43
2023-08-02T21:16:16.505Z,1.40
2023-08-02T21:19:03.173Z,1.50
2023-08-02T21:21:55.159Z,1.53
2023-08-02T21:24:41.372Z,1.30
2023-08-02T21:27:28.562Z,1.20
2023-08-02T21:30:15.921Z,1.30
2023-08-02T21:33:03.621Z,1.60
2023-08-02T21:35:55.824Z,1.70
2023-08-02T21:38:43.486Z,1.43
2023-08-02T21:41:31.384Z,1.37
2023-08-02T21:44:19.165Z,1.30
2023-08-02T21:47:06.396Z,1.30
2023-08-02T21:49:53.320Z,1.40
2023-08-02T21:52:40.361Z,1.40
2023-08-02T21:55:27.066Z,1.70
2023-08-02T21:58:17.628Z,1.20
2023-08-02T22:01:04.251Z,1.60
2023-08-02T22:03:51.079Z,1.40
2023-08-02T22:06:37.703Z,1.33
2023-08-02T22:09:24.055Z,1.60
2023-08-02T22:12:11.446Z,1.30
2023-08-02T22:15:04.481Z,1.80
2023-08-02T22:17:54.242Z,1.80
2023-08-02T22:20:41.485Z,1.57
2023-08-02T22:23:27.968Z,1.50
2023-08-02T22:26:14.272Z,1.20
2023-08-02T22:29:00.806Z,1.57
2023-08-02T22:31:47.394Z,2.27
2023-08-02T22:34:33.657Z,1.50
2023-08-02T22:37:20.169Z,1.60
2023-08-02T22:40:08.486Z,1.50
2023-08-02T22:42:56.435Z,1.60
2023-08-02T22:45:42.969Z,1.80
2023-08-02T22:49:45.005Z,1.90
2023-08-02T22:51:35.646Z,1.47
2023-08-02T22:54:22.150Z,1.23
2023-08-02T22:57:32.536Z,1.43
2023-08-02T23:00:26.056Z,1.30
2023-08-02T23:03:39.073Z,1.70
2023-08-02T23:06:29.200Z,1.43
2023-08-02T23:09:15.586Z,1.57
2023-08-02T23:12:02.230Z,1.40
2023-08-02T23:14:56.439Z,1.10
2023-08-02T23:17:42.756Z,1.40
2023-08-02T23:20:39.943Z,1.73
2023-08-02T23:23:27.018Z,1.60
2023-08-02T23:26:14.462Z,1.50
2023-08-02T23:29:01.187Z,1.50
2023-08-02T23:31:49.564Z,1.20
2023-08-02T23:34:36.023Z,1.37
2023-08-02T23:37:22.441Z,1.50
2023-08-02T23:40:09.608Z,1.20
2023-08-02T23:42:55.842Z,1.30
2023-08-02T23:45:43.684Z,1.50
2023-08-02T23:48:30.493Z,1.27
2023-08-02T23:51:17.678Z,1.23
2023-08-02T23:54:06.174Z,1.70
2023-08-02T23:56:52.819Z,1.20
2023-08-02T23:59:39.231Z,1.60
